sensor_id;sensor_type;location;lat;lon;timestamp;pressure;altitude;pressure_sealevel;temperature;humidity
75438;BME280;64015;49.392;15.582;2022-10-31T00:01:56;96219.41;;;8.32;100.00
75438;BME280;64015;49.392;15.582;2022-10-31T00:04:22;96229.19;;;8.36;100.00
75438;BME280;64015;49.392;15.582;2022-10-31T00:06:47;96226.28;;;8.33;100.00
75438;BME280;64015;49.392;15.582;2022-10-31T00:09:13;96225.13;;;8.29;100.00
75438;BME280;64015;49.392;15.582;2022-10-31T00:11:42;96227.50;;;8.30;100.00
75438;BME280;64015;49.392;15.582;2022-10-31T00:14:08;96219.88;;;8.29;100.00
75438;BME280;64015;49.392;15.582;2022-10-31T00:16:33;96226.81;;;8.35;100.00
75438;BME280;64015;49.392;15.582;2022-10-31T00:19:01;96217.88;;;8.36;100.00
75438;BME280;64015;49.392;15.582;2022-10-31T00:21:28;96208.56;;;8.28;100.00
75438;BME280;64015;49.392;15.582;2022-10-31T00:23:54;96222.59;;;8.34;100.00
75438;BME280;64015;49.392;15.582;2022-10-31T00:26:20;96227.38;;;8.37;100.00
75438;BME280;64015;49.392;15.582;2022-10-31T00:28:46;96232.63;;;8.37;100.00
75438;BME280;64015;49.392;15.582;2022-10-31T00:31:12;96219.41;;;8.32;100.00
75438;BME280;64015;49.392;15.582;2022-10-31T00:33:39;96240.59;;;8.42;100.00
75438;BME280;64015;49.392;15.582;2022-10-31T00:36:06;96241.13;;;8.44;100.00
75438;BME280;64015;49.392;15.582;2022-10-31T00:38:32;96243.75;;;8.44;100.00
75438;BME280;64015;49.392;15.582;2022-10-31T00:40:58;96240.66;;;8.47;100.00
75438;BME280;64015;49.392;15.582;2022-10-31T00:43:24;96241.22;;;8.49;100.00
75438;BME280;64015;49.392;15.582;2022-10-31T00:45:51;96242.31;;;8.53;100.00
75438;BME280;64015;49.392;15.582;2022-10-31T00:48:16;96229.72;;;8.55;100.00
75438;BME280;64015;49.392;15.582;2022-10-31T00:50:42;96240.75;;;8.52;100.00
75438;BME280;64015;49.392;15.582;2022-10-31T00:53:08;96239.06;;;8.46;100.00
75438;BME280;64015;49.392;15.582;2022-10-31T00:55:33;96218.38;;;8.33;100.00
75438;BME280;64015;49.392;15.582;2022-10-31T00:57:59;96234.84;;;8.45;100.00
75438;BME280;64015;49.392;15.582;2022-10-31T01:00:25;96241.22;;;8.49;100.00
75438;BME280;64015;49.392;15.582;2022-10-31T01:02:50;96233.31;;;8.49;100.00
75438;BME280;64015;49.392;15.582;2022-10-31T01:05:16;96219.06;;;8.45;100.00
75438;BME280;64015;49.392;15.582;2022-10-31T01:07:42;96236.44;;;8.46;100.00
75438;BME280;64015;49.392;15.582;2022-10-31T01:10:08;96239.25;;;8.39;100.00
75438;BME280;64015;49.392;15.582;2022-10-31T01:12:41;96235.56;;;8.40;100.00
75438;BME280;64015;49.392;15.582;2022-10-31T01:15:07;96228.41;;;8.52;100.00
75438;BME280;64015;49.392;15.582;2022-10-31T01:17:33;96228.78;;;8.61;100.00
75438;BME280;64015;49.392;15.582;2022-10-31T01:19:59;96227.09;;;8.55;100.00
75438;BME280;64015;49.392;15.582;2022-10-31T01:22:43;96227.84;;;8.50;100.00
75438;BME280;64015;49.392;15.582;2022-10-31T01:25:09;96224.69;;;8.32;100.00
75438;BME280;64015;49.392;15.582;2022-10-31T01:27:35;96224.25;;;8.23;100.00
75438;BME280;64015;49.392;15.582;2022-10-31T01:30:01;96226.16;;;8.28;100.00
75438;BME280;64015;49.392;15.582;2022-10-31T01:32:27;96238.38;;;8.34;100.00
75438;BME280;64015;49.392;15.582;2022-10-31T01:34:54;96237.59;;;8.33;100.00
75438;BME280;64015;49.392;15.582;2022-10-31T01:37:20;96238.91;;;8.36;100.00
75438;BME280;64015;49.392;15.582;2022-10-31T01:39:47;96229.44;;;8.35;100.00
75438;BME280;64015;49.392;15.582;2022-10-31T01:42:19;96237.97;;;8.42;100.00
75438;BME280;64015;49.392;15.582;2022-10-31T01:44:57;96232.22;;;8.45;100.00
75438;BME280;64015;49.392;15.582;2022-10-31T01:47:40;96224.59;;;8.43;100.00
75438;BME280;64015;49.392;15.582;2022-10-31T01:50:15;96229.34;;;8.46;100.00
75438;BME280;64015;49.392;15.582;2022-10-31T01:52:47;96229.66;;;8.50;100.00
75438;BME280;64015;49.392;15.582;2022-10-31T01:55:18;96221.81;;;8.55;100.00
75438;BME280;64015;49.392;15.582;2022-10-31T01:57:48;96229.72;;;8.55;100.00
75438;BME280;64015;49.392;15.582;2022-10-31T02:00:16;96226.94;;;8.45;100.00
75438;BME280;64015;49.392;15.582;2022-10-31T02:02:42;96226.41;;;8.43;100.00
75438;BME280;64015;49.392;15.582;2022-10-31T02:05:12;96231.59;;;8.38;100.00
75438;BME280;64015;49.392;15.582;2022-10-31T02:07:45;96219.63;;;8.30;100.00
75438;BME280;64015;49.392;15.582;2022-10-31T02:10:14;96220.41;;;8.31;100.00
75438;BME280;64015;49.392;15.582;2022-10-31T02:12:40;96228.78;;;8.28;100.00
75438;BME280;64015;49.392;15.582;2022-10-31T02:15:07;96215.06;;;8.25;100.00
75438;BME280;64015;49.392;15.582;2022-10-31T02:17:33;96211.03;;;8.18;100.00
75438;BME280;64015;49.392;15.582;2022-10-31T02:20:17;96225.13;;;8.29;100.00
75438;BME280;64015;49.392;15.582;2022-10-31T02:28:24;96213.56;;;8.30;100.00
75438;BME280;64015;49.392;15.582;2022-10-31T02:33:53;96217.50;;;8.10;100.00
75438;BME280;64015;49.392;15.582;2022-10-31T02:36:26;96216.88;;;8.03;100.00
75438;BME280;64015;49.392;15.582;2022-10-31T02:39:17;96230.56;;;8.05;100.00
75438;BME280;64015;49.392;15.582;2022-10-31T02:42:06;96226.56;;;8.03;100.00
75438;BME280;64015;49.392;15.582;2022-10-31T02:47:22;96226.25;;;7.99;100.00
75438;BME280;64015;49.392;15.582;2022-10-31T02:50:17;96229.38;;;7.96;100.00
75438;BME280;64015;49.392;15.582;2022-10-31T02:52:43;96218.47;;;7.88;100.00
75438;BME280;64015;49.392;15.582;2022-10-31T02:58:01;96222.75;;;7.77;100.00
75438;BME280;64015;49.392;15.582;2022-10-31T03:00:29;96225.22;;;7.67;100.00
75438;BME280;64015;49.392;15.582;2022-10-31T03:03:11;96229.59;;;7.78;100.00
75438;BME280;64015;49.392;15.582;2022-10-31T03:05:55;96233.03;;;7.78;100.00
75438;BME280;64015;49.392;15.582;2022-10-31T03:08:55;96227.84;;;7.67;100.00
75438;BME280;64015;49.392;15.582;2022-10-31T03:11:31;96234.69;;;7.68;100.00
75438;BME280;64015;49.392;15.582;2022-10-31T03:14:05;96245.31;;;7.61;100.00
75438;BME280;64015;49.392;15.582;2022-10-31T03:19:08;96243.06;;;7.53;100.00
75438;BME280;64015;49.392;15.582;2022-10-31T03:21:42;96237.59;;;7.55;100.00
75438;BME280;64015;49.392;15.582;2022-10-31T03:24:11;96234.16;;;7.54;100.00
75438;BME280;64015;49.392;15.582;2022-10-31T03:26:42;96243.88;;;7.54;100.00
75438;BME280;64015;49.392;15.582;2022-10-31T03:29:11;96245.38;;;7.49;100.00
75438;BME280;64015;49.392;15.582;2022-10-31T03:31:49;96238.44;;;7.43;100.00
75438;BME280;64015;49.392;15.582;2022-10-31T03:34:17;96234.78;;;7.44;100.00
75438;BME280;64015;49.392;15.582;2022-10-31T03:36:44;96233.69;;;7.40;100.00
75438;BME280;64015;49.392;15.582;2022-10-31T03:39:13;96244.00;;;7.30;100.00
75438;BME280;64015;49.392;15.582;2022-10-31T03:41:45;96251.28;;;7.28;100.00
75438;BME280;64015;49.392;15.582;2022-10-31T03:44:14;96246.41;;;7.20;100.00
75438;BME280;64015;49.392;15.582;2022-10-31T03:46:42;96253.63;;;7.13;100.00
75438;BME280;64015;49.392;15.582;2022-10-31T03:49:08;96253.06;;;7.11;100.00
75438;BME280;64015;49.392;15.582;2022-10-31T03:54:43;96247.63;;;7.01;100.00
75438;BME280;64015;49.392;15.582;2022-10-31T03:57:18;96250.69;;;6.98;100.00
75438;BME280;64015;49.392;15.582;2022-10-31T03:59:58;96240.47;;;6.85;100.00
75438;BME280;64015;49.392;15.582;2022-10-31T04:02:29;96238.75;;;6.79;100.00
75438;BME280;64015;49.392;15.582;2022-10-31T04:04:56;96247.19;;;6.81;100.00
75438;BME280;64015;49.392;15.582;2022-10-31T04:07:22;96245.81;;;6.78;100.00
75438;BME280;64015;49.392;15.582;2022-10-31T04:09:51;96251.28;;;6.77;100.00
75438;BME280;64015;49.392;15.582;2022-10-31T04:12:18;96245.06;;;6.66;100.00
75438;BME280;64015;49.392;15.582;2022-10-31T04:14:46;96261.34;;;6.68;100.00
75438;BME280;64015;49.392;15.582;2022-10-31T04:17:15;96253.03;;;6.59;100.00
75438;BME280;64015;49.392;15.582;2022-10-31T04:19:43;96259.88;;;6.60;100.00
75438;BME280;64015;49.392;15.582;2022-10-31T04:22:08;96255.56;;;6.54;100.00
75438;BME280;64015;49.392;15.582;2022-10-31T04:24:34;96254.88;;;6.47;100.00
75438;BME280;64015;49.392;15.582;2022-10-31T04:27:00;96252.50;;;6.34;100.00
75438;BME280;64015;49.392;15.582;2022-10-31T04:29:25;96253.50;;;6.33;100.00
75438;BME280;64015;49.392;15.582;2022-10-31T04:31:50;96257.06;;;6.27;100.00
75438;BME280;64015;49.392;15.582;2022-10-31T04:34:16;96260.13;;;6.24;100.00
75438;BME280;64015;49.392;15.582;2022-10-31T04:36:42;96266.28;;;6.18;100.00
75438;BME280;64015;49.392;15.582;2022-10-31T04:39:07;96250.75;;;6.05;100.00
75438;BME280;64015;49.392;15.582;2022-10-31T04:41:33;96260.78;;;6.08;100.00
75438;BME280;64015;49.392;15.582;2022-10-31T04:43:58;96262.38;;;6.09;100.00
75438;BME280;64015;49.392;15.582;2022-10-31T04:46:23;96264.66;;;6.05;100.00
75438;BME280;64015;49.392;15.582;2022-10-31T04:48:49;96266.38;;;5.99;100.00
75438;BME280;64015;49.392;15.582;2022-10-31T04:51:14;96259.63;;;5.92;100.00
75438;BME280;64015;49.392;15.582;2022-10-31T04:53:40;96267.50;;;5.92;100.00
75438;BME280;64015;49.392;15.582;2022-10-31T04:56:06;96263.72;;;5.88;100.00
75438;BME280;64015;49.392;15.582;2022-10-31T04:58:31;96264.94;;;5.85;100.00
75438;BME280;64015;49.392;15.582;2022-10-31T05:00:57;96271.88;;;5.80;100.00
75438;BME280;64015;49.392;15.582;2022-10-31T05:03:25;96254.78;;;5.77;100.00
75438;BME280;64015;49.392;15.582;2022-10-31T05:05:50;96258.09;;;5.73;100.00
75438;BME280;64015;49.392;15.582;2022-10-31T05:08:16;96256.72;;;5.70;100.00
75438;BME280;64015;49.392;15.582;2022-10-31T05:10:41;96262.16;;;5.69;100.00
75438;BME280;64015;49.392;15.582;2022-10-31T05:13:07;96263.72;;;5.58;100.00
75438;BME280;64015;49.392;15.582;2022-10-31T05:15:33;96270.69;;;5.64;100.00
75438;BME280;64015;49.392;15.582;2022-10-31T05:17:59;96267.06;;;5.65;100.00
75438;BME280;64015;49.392;15.582;2022-10-31T05:20:27;96262.72;;;5.59;100.00
75438;BME280;64015;49.392;15.582;2022-10-31T05:22:54;96265.91;;;5.61;100.00
75438;BME280;64015;49.392;15.582;2022-10-31T05:25:21;96266.34;;;5.58;100.00
75438;BME280;64015;49.392;15.582;2022-10-31T05:27:48;96265.00;;;5.55;100.00
75438;BME280;64015;49.392;15.582;2022-10-31T05:30:17;96259.97;;;5.54;100.00
75438;BME280;64015;49.392;15.582;2022-10-31T05:32:45;96262.44;;;5.49;100.00
75438;BME280;64015;49.392;15.582;2022-10-31T05:35:16;96265.06;;;5.49;100.00
75438;BME280;64015;49.392;15.582;2022-10-31T05:37:41;96256.50;;;5.42;100.00
75438;BME280;64015;49.392;15.582;2022-10-31T05:40:09;96271.31;;;5.48;100.00
75438;BME280;64015;49.392;15.582;2022-10-31T05:42:35;96268.13;;;5.46;100.00
75438;BME280;64015;49.392;15.582;2022-10-31T05:45:01;96278.59;;;5.46;100.00
75438;BME280;64015;49.392;15.582;2022-10-31T05:47:27;96267.34;;;5.45;100.00
75438;BME280;64015;49.392;15.582;2022-10-31T05:49:52;96271.78;;;5.45;100.00
75438;BME280;64015;49.392;15.582;2022-10-31T05:52:18;96274.25;;;5.40;100.00
75438;BME280;64015;49.392;15.582;2022-10-31T05:54:43;96274.81;;;5.42;100.00
75438;BME280;64015;49.392;15.582;2022-10-31T05:57:09;96272.63;;;5.39;100.00
75438;BME280;64015;49.392;15.582;2022-10-31T05:59:35;96284.69;;;5.40;100.00
75438;BME280;64015;49.392;15.582;2022-10-31T06:02:00;96274.44;;;5.38;100.00
75438;BME280;64015;49.392;15.582;2022-10-31T06:04:26;96282.09;;;5.40;100.00
75438;BME280;64015;49.392;15.582;2022-10-31T06:06:51;96282.78;;;5.35;100.00
75438;BME280;64015;49.392;15.582;2022-10-31T06:09:17;96286.72;;;5.38;100.00
75438;BME280;64015;49.392;15.582;2022-10-31T06:11:43;96285.41;;;5.47;100.00
75438;BME280;64015;49.392;15.582;2022-10-31T06:14:14;96300.25;;;5.53;100.00
75438;BME280;64015;49.392;15.582;2022-10-31T06:16:39;96287.25;;;5.46;100.00
75438;BME280;64015;49.392;15.582;2022-10-31T06:19:05;96300.09;;;5.48;100.00
75438;BME280;64015;49.392;15.582;2022-10-31T06:21:30;96285.66;;;5.45;100.00
75438;BME280;64015;49.392;15.582;2022-10-31T06:23:56;96286.22;;;5.47;100.00
75438;BME280;64015;49.392;15.582;2022-10-31T06:26:21;96304.47;;;5.54;100.00
75438;BME280;64015;49.392;15.582;2022-10-31T06:28:47;96307.66;;;5.56;100.00
75438;BME280;64015;49.392;15.582;2022-10-31T06:31:12;96313.44;;;5.58;100.00
75438;BME280;64015;49.392;15.582;2022-10-31T06:33:40;96317.88;;;5.57;100.00
75438;BME280;64015;49.392;15.582;2022-10-31T06:36:06;96315.84;;;5.59;100.00
75438;BME280;64015;49.392;15.582;2022-10-31T06:38:32;96307.56;;;5.62;100.00
75438;BME280;64015;49.392;15.582;2022-10-31T06:40:57;96320.09;;;5.72;100.00
75438;BME280;64015;49.392;15.582;2022-10-31T06:43:23;96322.03;;;5.77;100.00
75438;BME280;64015;49.392;15.582;2022-10-31T06:45:48;96316.59;;;5.78;100.00
75438;BME280;64015;49.392;15.582;2022-10-31T06:48:14;96317.19;;;5.80;100.00
75438;BME280;64015;49.392;15.582;2022-10-31T06:50:39;96315.56;;;5.79;100.00
75438;BME280;64015;49.392;15.582;2022-10-31T06:53:05;96327.47;;;5.93;100.00
75438;BME280;64015;49.392;15.582;2022-10-31T06:55:30;96317.00;;;5.93;100.00
75438;BME280;64015;49.392;15.582;2022-10-31T06:57:58;96325.69;;;6.06;100.00
75438;BME280;64015;49.392;15.582;2022-10-31T07:00:25;96321.50;;;6.16;100.00
75438;BME280;64015;49.392;15.582;2022-10-31T07:03:01;96338.59;;;6.30;100.00
75438;BME280;64015;49.392;15.582;2022-10-31T07:05:27;96343.75;;;6.37;100.00
75438;BME280;64015;49.392;15.582;2022-10-31T07:07:55;96345.13;;;6.51;100.00
75438;BME280;64015;49.392;15.582;2022-10-31T07:10:22;96348.19;;;6.60;100.00
75438;BME280;64015;49.392;15.582;2022-10-31T07:12:48;96342.75;;;6.73;100.00
75438;BME280;64015;49.392;15.582;2022-10-31T07:15:13;96349.00;;;6.84;100.00
75438;BME280;64015;49.392;15.582;2022-10-31T07:17:39;96352.09;;;6.92;100.00
75438;BME280;64015;49.392;15.582;2022-10-31T07:20:05;96344.66;;;7.01;100.00
75438;BME280;64015;49.392;15.582;2022-10-31T07:22:35;96352.03;;;7.16;100.00
75438;BME280;64015;49.392;15.582;2022-10-31T07:25:01;96346.34;;;7.19;100.00
75438;BME280;64015;49.392;15.582;2022-10-31T07:27:27;96343.41;;;7.43;100.00
75438;BME280;64015;49.392;15.582;2022-10-31T07:29:53;96338.38;;;7.54;100.00
75438;BME280;64015;49.392;15.582;2022-10-31T07:32:18;96347.09;;;7.71;100.00
75438;BME280;64015;49.392;15.582;2022-10-31T07:34:44;96337.34;;;7.83;100.00
75438;BME280;64015;49.392;15.582;2022-10-31T07:37:10;96342.41;;;8.01;100.00
75438;BME280;64015;49.392;15.582;2022-10-31T07:39:35;96333.03;;;8.05;100.00
75438;BME280;64015;49.392;15.582;2022-10-31T07:42:01;96327.28;;;8.08;100.00
75438;BME280;64015;49.392;15.582;2022-10-31T07:44:26;96339.34;;;8.38;100.00
75438;BME280;64015;49.392;15.582;2022-10-31T07:46:52;96333.16;;;8.60;100.00
75438;BME280;64015;49.392;15.582;2022-10-31T07:49:18;96317.84;;;8.57;100.00
75438;BME280;64015;49.392;15.582;2022-10-31T07:51:43;96330.56;;;8.82;100.00
75438;BME280;64015;49.392;15.582;2022-10-31T07:54:40;96330.16;;;8.90;100.00
75438;BME280;64015;49.392;15.582;2022-10-31T07:57:09;96303.91;;;8.95;100.00
75438;BME280;64015;49.392;15.582;2022-10-31T07:59:34;96336.50;;;9.33;100.00
75438;BME280;64015;49.392;15.582;2022-10-31T08:02:00;96325.59;;;9.46;100.00
75438;BME280;64015;49.392;15.582;2022-10-31T08:04:25;96330.59;;;9.69;100.00
75438;BME280;64015;49.392;15.582;2022-10-31T08:06:51;96310.31;;;9.70;100.00
75438;BME280;64015;49.392;15.582;2022-10-31T08:09:16;96331.28;;;10.08;100.00
75438;BME280;64015;49.392;15.582;2022-10-31T08:11:42;96316.91;;;10.21;100.00
75438;BME280;64015;49.392;15.582;2022-10-31T08:14:08;96324.00;;;10.53;100.00
75438;BME280;64015;49.392;15.582;2022-10-31T08:16:33;96329.88;;;10.60;100.00
75438;BME280;64015;49.392;15.582;2022-10-31T08:18:59;96333.06;;;10.67;100.00
75438;BME280;64015;49.392;15.582;2022-10-31T08:21:25;96313.16;;;10.86;100.00
75438;BME280;64015;49.392;15.582;2022-10-31T08:23:50;96314.31;;;11.05;100.00
75438;BME280;64015;49.392;15.582;2022-10-31T08:26:16;96323.44;;;11.30;100.00
75438;BME280;64015;49.392;15.582;2022-10-31T08:28:41;96312.91;;;11.40;100.00
75438;BME280;64015;49.392;15.582;2022-10-31T08:31:07;96319.28;;;11.59;100.00
75438;BME280;64015;49.392;15.582;2022-10-31T08:33:34;96304.00;;;11.71;100.00
75438;BME280;64015;49.392;15.582;2022-10-31T08:36:00;96304.59;;;11.88;100.00
75438;BME280;64015;49.392;15.582;2022-10-31T08:38:26;96300.94;;;12.05;100.00
75438;BME280;64015;49.392;15.582;2022-10-31T08:40:51;96307.56;;;12.27;100.00
75438;BME280;64015;49.392;15.582;2022-10-31T08:43:24;96295.66;;;12.55;100.00
75438;BME280;64015;49.392;15.582;2022-10-31T08:45:50;96299.84;;;12.87;100.00
75438;BME280;64015;49.392;15.582;2022-10-31T08:48:16;96303.47;;;13.26;100.00
75438;BME280;64015;49.392;15.582;2022-10-31T08:50:44;96297.34;;;13.85;98.07
75438;BME280;64015;49.392;15.582;2022-10-31T08:53:15;96292.84;;;14.64;91.96
75438;BME280;64015;49.392;15.582;2022-10-31T08:55:42;96294.19;;;15.61;86.11
75438;BME280;64015;49.392;15.582;2022-10-31T08:58:13;96279.31;;;16.68;81.33
75438;BME280;64015;49.392;15.582;2022-10-31T09:00:42;96271.13;;;17.60;74.83
75438;BME280;64015;49.392;15.582;2022-10-31T09:03:13;96272.34;;;18.48;70.50
75438;BME280;64015;49.392;15.582;2022-10-31T09:05:40;96276.56;;;19.33;67.81
75438;BME280;64015;49.392;15.582;2022-10-31T09:08:06;96258.91;;;20.06;63.73
75438;BME280;64015;49.392;15.582;2022-10-31T09:10:33;96264.06;;;20.72;60.40
75438;BME280;64015;49.392;15.582;2022-10-31T09:13:04;96271.16;;;21.23;58.93
75438;BME280;64015;49.392;15.582;2022-10-31T09:15:35;96269.13;;;21.79;55.80
75438;BME280;64015;49.392;15.582;2022-10-31T09:18:01;96272.56;;;22.29;53.47
75438;BME280;64015;49.392;15.582;2022-10-31T09:20:28;96270.31;;;22.85;51.29
75438;BME280;64015;49.392;15.582;2022-10-31T09:22:57;96266.78;;;23.18;49.76
75438;BME280;64015;49.392;15.582;2022-10-31T09:25:23;96258.63;;;23.51;48.85
75438;BME280;64015;49.392;15.582;2022-10-31T09:27:48;96264.28;;;23.98;48.00
75438;BME280;64015;49.392;15.582;2022-10-31T09:30:14;96256.16;;;24.50;46.21
75438;BME280;64015;49.392;15.582;2022-10-31T09:32:39;96258.75;;;24.90;43.91
75438;BME280;64015;49.392;15.582;2022-10-31T09:35:05;96247.38;;;25.12;43.26
75438;BME280;64015;49.392;15.582;2022-10-31T09:37:31;96257.03;;;25.95;41.34
75438;BME280;64015;49.392;15.582;2022-10-31T09:39:56;96252.44;;;26.54;39.80
75438;BME280;64015;49.392;15.582;2022-10-31T09:42:55;96260.31;;;27.01;38.54
75438;BME280;64015;49.392;15.582;2022-10-31T09:45:35;96251.72;;;27.67;36.68
75438;BME280;64015;49.392;15.582;2022-10-31T09:51:25;96242.41;;;28.91;33.78
75438;BME280;64015;49.392;15.582;2022-10-31T09:54:01;96239.09;;;29.56;32.21
75438;BME280;64015;49.392;15.582;2022-10-31T09:56:28;96230.53;;;29.54;32.53
75438;BME280;64015;49.392;15.582;2022-10-31T09:58:55;96230.69;;;29.28;34.85
75438;BME280;64015;49.392;15.582;2022-10-31T10:01:42;96235.38;;;28.87;32.79
75438;BME280;64015;49.392;15.582;2022-10-31T10:05:10;96231.81;;;28.79;33.59
75438;BME280;64015;49.392;15.582;2022-10-31T10:07:16;96234.28;;;28.95;33.16
75438;BME280;64015;49.392;15.582;2022-10-31T10:09:44;96231.19;;;28.97;33.08
75438;BME280;64015;49.392;15.582;2022-10-31T10:12:16;96229.06;;;29.20;33.65
75438;BME280;64015;49.392;15.582;2022-10-31T10:15:09;96228.22;;;29.09;32.74
75438;BME280;64015;49.392;15.582;2022-10-31T10:20:31;96227.22;;;29.31;36.60
75438;BME280;64015;49.392;15.582;2022-10-31T10:23:14;96212.16;;;29.41;32.14
75438;BME280;64015;49.392;15.582;2022-10-31T10:25:45;96225.97;;;29.76;31.04
75438;BME280;64015;49.392;15.582;2022-10-31T10:28:35;96225.38;;;30.04;32.57
75438;BME280;64015;49.392;15.582;2022-10-31T10:31:05;96221.69;;;30.48;31.70
75438;BME280;64015;49.392;15.582;2022-10-31T10:33:36;96216.97;;;30.34;31.15
75438;BME280;64015;49.392;15.582;2022-10-31T10:36:06;96220.50;;;30.45;32.04
75438;BME280;64015;49.392;15.582;2022-10-31T10:38:37;96216.34;;;30.76;29.87
75438;BME280;64015;49.392;15.582;2022-10-31T10:41:16;96208.19;;;31.15;34.07
75438;BME280;64015;49.392;15.582;2022-10-31T10:43:41;96214.81;;;31.25;32.48
75438;BME280;64015;49.392;15.582;2022-10-31T10:49:17;96199.59;;;31.52;30.48
75438;BME280;64015;49.392;15.582;2022-10-31T11:00:29;96189.72;;;32.08;27.89
75438;BME280;64015;49.392;15.582;2022-10-31T11:02:55;96183.38;;;32.43;29.10
75438;BME280;64015;49.392;15.582;2022-10-31T11:07:46;96182.47;;;32.60;26.63
75438;BME280;64015;49.392;15.582;2022-10-31T11:10:13;96174.47;;;32.94;25.95
75438;BME280;64015;49.392;15.582;2022-10-31T11:12:40;96176.88;;;32.85;29.18
75438;BME280;64015;49.392;15.582;2022-10-31T11:15:27;96183.28;;;33.12;27.43
75438;BME280;64015;49.392;15.582;2022-10-31T11:17:55;96181.72;;;33.15;25.93
75438;BME280;64015;49.392;15.582;2022-10-31T11:20:31;96176.66;;;33.58;28.35
75438;BME280;64015;49.392;15.582;2022-10-31T11:23:02;96175.88;;;33.57;25.94
75438;BME280;64015;49.392;15.582;2022-10-31T11:25:28;96171.84;;;33.69;26.77
75438;BME280;64015;49.392;15.582;2022-10-31T11:30:25;96175.16;;;34.25;26.74
75438;BME280;64015;49.392;15.582;2022-10-31T11:32:51;96170.41;;;34.29;24.53
75438;BME280;64015;49.392;15.582;2022-10-31T11:35:20;96163.38;;;34.28;25.67
75438;BME280;64015;49.392;15.582;2022-10-31T11:37:48;96165.28;;;34.58;25.99
75438;BME280;64015;49.392;15.582;2022-10-31T11:40:21;96169.00;;;34.74;26.24
75438;BME280;64015;49.392;15.582;2022-10-31T11:42:48;96161.44;;;34.55;25.51
75438;BME280;64015;49.392;15.582;2022-10-31T11:47:51;96164.44;;;34.64;24.93
75438;BME280;64015;49.392;15.582;2022-10-31T11:50:31;96159.03;;;34.57;24.45
75438;BME280;64015;49.392;15.582;2022-10-31T11:52:58;96155.47;;;34.87;26.90
75438;BME280;64015;49.392;15.582;2022-10-31T11:55:37;96151.25;;;35.06;24.43
75438;BME280;64015;49.392;15.582;2022-10-31T11:58:03;96150.00;;;34.87;25.14
75438;BME280;64015;49.392;15.582;2022-10-31T12:00:36;96151.50;;;35.15;25.27
75438;BME280;64015;49.392;15.582;2022-10-31T12:03:33;96146.03;;;35.38;24.26
75438;BME280;64015;49.392;15.582;2022-10-31T12:06:07;96145.69;;;35.36;24.27
75438;BME280;64015;49.392;15.582;2022-10-31T12:08:36;96136.25;;;35.37;25.58
75438;BME280;64015;49.392;15.582;2022-10-31T12:17:18;96137.69;;;34.75;25.36
75438;BME280;64015;49.392;15.582;2022-10-31T12:22:57;96141.03;;;35.10;26.36
75438;BME280;64015;49.392;15.582;2022-10-31T12:25:36;96135.34;;;35.21;25.88
75438;BME280;64015;49.392;15.582;2022-10-31T12:31:13;96135.75;;;35.42;26.31
75438;BME280;64015;49.392;15.582;2022-10-31T12:36:37;96133.94;;;35.12;24.92
75438;BME280;64015;49.392;15.582;2022-10-31T12:39:19;96127.91;;;34.98;25.61
75438;BME280;64015;49.392;15.582;2022-10-31T12:41:57;96123.00;;;34.86;25.84
75438;BME280;64015;49.392;15.582;2022-10-31T12:44:45;96127.28;;;34.87;24.68
75438;BME280;64015;49.392;15.582;2022-10-31T12:47:38;96115.75;;;34.99;25.47
75438;BME280;64015;49.392;15.582;2022-10-31T12:56:05;96114.06;;;34.82;25.86
75438;BME280;64015;49.392;15.582;2022-10-31T12:58:29;96104.66;;;34.83;26.41
75438;BME280;64015;49.392;15.582;2022-10-31T13:01:07;96108.66;;;35.01;25.70
75438;BME280;64015;49.392;15.582;2022-10-31T13:03:44;96099.59;;;34.54;26.16
75438;BME280;64015;49.392;15.582;2022-10-31T13:06:18;96100.22;;;34.65;27.55
75438;BME280;64015;49.392;15.582;2022-10-31T13:08:49;96095.59;;;34.59;27.44
75438;BME280;64015;49.392;15.582;2022-10-31T13:11:21;96093.09;;;34.14;27.39
75438;BME280;64015;49.392;15.582;2022-10-31T13:16:32;96096.31;;;33.79;28.32
75438;BME280;64015;49.392;15.582;2022-10-31T13:19:10;96091.41;;;33.93;28.48
75438;BME280;64015;49.392;15.582;2022-10-31T13:21:58;96092.28;;;33.53;29.19
75438;BME280;64015;49.392;15.582;2022-10-31T13:24:55;96093.13;;;33.46;28.71
75438;BME280;64015;49.392;15.582;2022-10-31T13:27:25;96087.69;;;33.02;30.22
75438;BME280;64015;49.392;15.582;2022-10-31T13:30:05;96086.56;;;32.99;30.50
75438;BME280;64015;49.392;15.582;2022-10-31T13:32:45;96086.09;;;32.59;31.15
75438;BME280;64015;49.392;15.582;2022-10-31T13:35:20;96087.13;;;32.21;31.53
75438;BME280;64015;49.392;15.582;2022-10-31T13:38:00;96084.63;;;31.75;31.64
75438;BME280;64015;49.392;15.582;2022-10-31T13:40:55;96093.97;;;31.70;32.52
75438;BME280;64015;49.392;15.582;2022-10-31T13:43:29;96085.03;;;31.70;31.46
75438;BME280;64015;49.392;15.582;2022-10-31T13:45:57;96089.72;;;31.62;31.50
75438;BME280;64015;49.392;15.582;2022-10-31T13:48:36;96087.44;;;31.43;31.75
75438;BME280;64015;49.392;15.582;2022-10-31T13:51:07;96080.41;;;31.42;30.77
75438;BME280;64015;49.392;15.582;2022-10-31T13:53:44;96091.00;;;31.19;31.82
75438;BME280;64015;49.392;15.582;2022-10-31T13:56:17;96084.00;;;30.96;32.42
75438;BME280;64015;49.392;15.582;2022-10-31T14:01:34;96092.19;;;30.75;32.38
75438;BME280;64015;49.392;15.582;2022-10-31T14:04:04;96073.50;;;30.84;32.43
75438;BME280;64015;49.392;15.582;2022-10-31T14:06:36;96077.81;;;30.67;33.16
75438;BME280;64015;49.392;15.582;2022-10-31T14:09:03;96077.00;;;30.60;32.55
75438;BME280;64015;49.392;15.582;2022-10-31T14:11:28;96087.47;;;30.51;32.78
75438;BME280;64015;49.392;15.582;2022-10-31T14:13:56;96073.84;;;30.19;33.96
75438;BME280;64015;49.392;15.582;2022-10-31T14:16:31;96078.00;;;29.81;36.56